ADDS METAR Data INFO
IDs: Format: Raw Decoded Include TAF

Data at: 0027 UTC 11 Dec 2017

KBUF 110004Z 25009KT 3SM -SN BKN024 OVC037 M03/M04 A2986 RMK AO2 P0000 T10281044 $
KBUF 102354Z COR 26010KT 2SM -SN BKN024 OVC038 M03/M04 A2986 RMK AO2 SLP123 P0001 60004 4/003 T10281044 11017 21028 51014 $
KBUF 102254Z 27012KT 2SM -SN BKN024 OVC034 M03/M05 A2986 RMK AO2 SLP121 P0000 T10281050 $
KBUF 102214Z 27013G20KT 1 3/4SM -SN BKN026 OVC035 M02/M06 A2984 RMK AO2 P0000 T10221061 $
KBUF 102154Z 26016G22KT 5SM -SN BKN027 OVC036 M02/M06 A2984 RMK AO2 SLP113 P0000 T10171061 $
KBUF 102125Z 27013KT 7SM -SN SCT017 OVC034 M02/M06 A2984 RMK AO2 P0000 T10221056 $
KBUF 102111Z 27013KT 3SM -SN BKN012 BKN020 OVC037 M02/M04 A2983 RMK AO2 P0000 T10221039 $
KBUF 102054Z 26013G19KT 1/2SM R23/3000V5000FT SN BKN012 BKN020 OVC025 M03/M04 A2982 RMK AO2 SLP109 SNINCR 1/2 P0002 60002 T10281039 53001 $
KBUF 102047Z COR 26010KT 1/2SM R23/3000V4500FT SN BKN013 BKN020 OVC025 M03/M04 A2982 RMK AO2 P0001 T10281039 $
KBUF 102041Z 26014KT 1/2SM R23/3500V6000FT SN BKN015 BKN020 OVC025 M03/M04 A2982 RMK AO2 P0001 T10281039 $
KBUF 102029Z 27011KT 1SM R23/3500VP6000FT -SN BR BKN015 BKN027 OVC034 M02/M04 A2982 RMK AO2 P0001 T10221039 $
KBUF 102011Z 25010KT 1/2SM R23/3000V6000FT SN BKN013 OVC028 M02/M04 A2982 RMK AO2 P0000 T10221039 $
KBUF 102004Z 25013KT 1SM R23/5500VP6000FT -SN BR SCT017 OVC028 M02/M04 A2982 RMK AO2 P0000 T10221044 $
KBUF 101954Z 26011KT 2SM -SN BR SCT017 OVC028 M03/M04 A2982 RMK AO2 SLP106 P0000 T10281039 $
KBUF 101946Z 26010KT 1SM R23/4000VP6000FT -SN BR SCT015 OVC027 M03/M04 A2982 RMK AO2 P0000 T10281039 $
KBUF 101933Z 26010G18KT 3/4SM R23/3000V6000FT VCTS -SN BR BKN015 OVC027 M02/M04 A2981 RMK AO2 P0000 T10221044 $
KBUF 101919Z 26013KT 3/4SM R23/4500VP6000FT -SN BR BKN019 OVC031 M02/M04 A2981 RMK AO2 P0000 T10221044
KBUF 101904Z COR 27012KT 1SM R23/5000VP6000FT -SN BKN021 OVC031 M02/M05 A2981 RMK AO2 P0000 T10221050
KBUF 101854Z 27016G22KT 2SM -SN BKN025 BKN030 OVC036 M02/M06 A2981 RMK AO2 SLP102 P0000 T10221056
KBUF 101841Z 26014KT 2 1/2SM -SN BKN029 BKN036 OVC043 M02/M06 A2981 RMK AO2 LTG DSNT SW P0000 T10221056
KBUF 101754Z 26013KT 5SM -SN OVC032 M02/M06 A2982 RMK AO2 SLP107 4/001 P0000 60000 T10171061 11017 21028 57016
KBUF 101654Z 27013G24KT 9SM -SN FEW038 BKN050 OVC070 M02/M07 A2983 RMK AO2 SLP109 PCPN VRY LGT P0000 T10221072
KBUF 101554Z 28013G22KT 9SM -SN BKN046 OVC070 M02/M08 A2986 RMK AO2 PK WND 26031/1523 SLP121 SNB28 P0000 T10221078
KBUF 101454Z 27016G22KT 10SM FEW025 SCT075 OVC090 M02/M09 A2987 RMK AO2 PK WND 26026/1435 SLP123 T10221089 51015
KBUF 101354Z 27017G27KT 10SM FEW022 BKN055 OVC070 M03/M08 A2986 RMK AO2 PK WND 27027/1348 SLP121 T10281078
KBUF 101254Z 28010G19KT 10SM FEW013 FEW026 BKN050 OVC130 M03/M07 A2985 RMK AO2 SLP116 T10281067
KBUF 101154Z 26009KT 10SM FEW013 FEW031 BKN070 OVC130 M02/M06 A2982 RMK AO2 SNE32 SLP108 4/001 P0000 60001 70001 T10221056 11017 21022 53017
KBUF 101054Z 28010KT 6SM -SN BR SCT016 BKN032 OVC070 M02/M04 A2981 RMK AO2 SLP103 P0001 T10221044
KBUF 101047Z 28008KT 6SM -SN BR SCT018 BKN035 OVC070 M02/M04 A2980 RMK AO2 P0001 T10221039
KBUF 100954Z 29010KT 3SM -SN BR SCT016 BKN029 OVC042 M02/M04 A2979 RMK AO2 SLP095 P0000 T10221039
KBUF 100854Z 28009KT 6SM -SN BR FEW027 BKN060 OVC070 M02/M04 A2977 RMK AO2 SLP091 P0000 60000 T10221044 53006
KBUF 100754Z 25007KT 8SM -SN SCT032 BKN055 OVC065 M02/M04 A2977 RMK AO2 SLP088 P0000 T10171044
KBUF 100654Z 28007KT 3SM -SN SCT015 OVC032 M02/M04 A2976 RMK AO2 SLP087 P0000 T10171044
KBUF 100554Z 26006KT 8SM -SN FEW015 OVC030 M02/M04 A2975 RMK AO2 SLP084 4/001 P0000 60000 T10171044 11006 21022 58002
KBUF 100525Z 25005KT 7SM -SN SCT015 OVC030 M02/M04 A2976 RMK AO2 P0000 T10171039
KBUF 100501Z 24007KT 9SM -SN BKN016 OVC030 M02/M04 A2975 RMK AO2 P0000 T10171044
KBUF 100454Z 23006KT 9SM -SN SCT016 OVC038 M02/M04 A2975 RMK AO2 SLP084 P0000 T10171044 400061050
KBUF 100354Z 23004KT 9SM -SN BKN042 OVC050 M02/M04 A2976 RMK AO2 SLP087 P0000 T10171044
KBUF 100254Z 28005KT 7SM -SN OVC048 M02/M05 A2976 RMK AO2 SNB18 SLP087 P0000 60000 T10171050 58001
KBUF 100154Z 28006KT 10SM BKN045 OVC055 M01/M06 A2976 RMK AO2 SLP088 T10111056
KBUF 100054Z 28008KT 10SM SCT034 BKN045 OVC060 M01/M07 A2976 RMK AO2 SLP089 T10061072
KBUF 092354Z 00000KT 10SM FEW070 OVC100 M01/M08 A2976 RMK AO2 SLP088 4/001 T10111083 10006 21017 53005
KBUF 092254Z 33003KT 10SM BKN110 M01/M09 A2976 RMK AO2 SLP086 T10061089
KBUF 092154Z 29004KT 10SM BKN095 BKN120 M02/M09 A2975 RMK AO2 SLP085 T10171094
KBUF 092054Z 28005KT 10SM OVC090 00/M10 A2975 RMK AO2 SLP082 T00001100 55007
KBUF 091954Z 26005KT 10SM SCT100 SCT200 01/M11 A2974 RMK AO2 SLP079 T00061106
KBUF 091854Z 22007KT 10SM BKN100 BKN200 00/M11 A2974 RMK AO2 SLP080 T00001106
KBUF 091754Z 23007KT 10SM SCT080 BKN120 BKN190 00/M11 A2977 RMK AO2 SLP089 4/001 T00001106 10000 21050 56028
KBUF 091654Z 20009KT 10SM SCT070 BKN120 BKN180 M02/M11 A2979 RMK AO2 SLP095 T10171106
KBUF 091554Z 22009KT 10SM SCT070 BKN120 BKN180 M02/M10 A2983 RMK AO2 SLP111 T10221100
KBUF 091454Z 21005KT 10SM BKN070 BKN120 BKN180 M03/M10 A2985 RMK AO2 SLP119 T10331100 55001
KBUF 091354Z 16009KT 10SM BKN070 BKN120 BKN180 M04/M11 A2984 RMK AO2 SLP117 T10441106
KBUF 091254Z 15007KT 10SM FEW036 SCT130 BKN190 M05/M11 A2985 RMK AO2 SLP120 T10501106